sensor_id;sensor_type;location;lat;lon;timestamp;pressure;altitude;pressure_sealevel;temperature;humidity
74065;BME280;62421;51.412;5.432;2023-04-24T00:00:54;99910.69;;;8.75;100.00
74065;BME280;62421;51.412;5.432;2023-04-24T00:03:24;99910.69;;;8.75;100.00
74065;BME280;62421;51.412;5.432;2023-04-24T00:05:50;99918.72;;;8.75;100.00
74065;BME280;62421;51.412;5.432;2023-04-24T00:08:17;99913.25;;;8.76;100.00
74065;BME280;62421;51.412;5.432;2023-04-24T00:10:42;99918.38;;;8.79;100.00
74065;BME280;62421;51.412;5.432;2023-04-24T00:13:07;99921.78;;;8.81;100.00
74065;BME280;62421;51.412;5.432;2023-04-24T00:15:33;99925.44;;;8.80;100.00
74065;BME280;62421;51.412;5.432;2023-04-24T00:17:58;99930.69;;;8.82;100.00
74065;BME280;62421;51.412;5.432;2023-04-24T00:20:24;99924.44;;;8.81;100.00
74065;BME280;62421;51.412;5.432;2023-04-24T00:22:49;99920.72;;;8.84;100.00
74065;BME280;62421;51.412;5.432;2023-04-24T00:25:15;99926.06;;;8.84;100.00
74065;BME280;62421;51.412;5.432;2023-04-24T00:27:40;99926.91;;;8.85;100.00
74065;BME280;62421;51.412;5.432;2023-04-24T00:30:06;99928.75;;;8.84;100.00
74065;BME280;62421;51.412;5.432;2023-04-24T00:32:31;99934.09;;;8.84;100.00
74065;BME280;62421;51.412;5.432;2023-04-24T00:34:57;99931.41;;;8.84;100.00
74065;BME280;62421;51.412;5.432;2023-04-24T00:37:22;99935.06;;;8.83;100.00
74065;BME280;62421;51.412;5.432;2023-04-24T00:39:47;99926.28;;;8.81;100.00
74065;BME280;62421;51.412;5.432;2023-04-24T00:42:13;99929.22;;;8.78;100.00
74065;BME280;62421;51.412;5.432;2023-04-24T00:44:38;99946.22;;;8.77;100.00
74065;BME280;62421;51.412;5.432;2023-04-24T00:47:04;99938.56;;;8.72;100.00
74065;BME280;62421;51.412;5.432;2023-04-24T00:49:30;99934.41;;;8.68;100.00
74065;BME280;62421;51.412;5.432;2023-04-24T00:51:55;99924.69;;;8.67;100.00
74065;BME280;62421;51.412;5.432;2023-04-24T00:54:22;99935.38;;;8.67;100.00
74065;BME280;62421;51.412;5.432;2023-04-24T00:56:47;99934.50;;;8.67;100.00
74065;BME280;62421;51.412;5.432;2023-04-24T00:59:15;99950.47;;;8.68;100.00
74065;BME280;62421;51.412;5.432;2023-04-24T01:01:41;99938.06;;;8.67;100.00
74065;BME280;62421;51.412;5.432;2023-04-24T01:04:07;99938.91;;;8.68;100.00
74065;BME280;62421;51.412;5.432;2023-04-24T01:06:34;99931.97;;;8.65;100.00
74065;BME280;62421;51.412;5.432;2023-04-24T01:09:00;99928.41;;;8.65;100.00
74065;BME280;62421;51.412;5.432;2023-04-24T01:11:26;99922.59;;;8.59;100.00
74065;BME280;62421;51.412;5.432;2023-04-24T01:13:51;99926.47;;;8.55;100.00
74065;BME280;62421;51.412;5.432;2023-04-24T01:16:18;99933.75;;;8.53;100.00
74065;BME280;62421;51.412;5.432;2023-04-24T01:18:46;99929.50;;;8.51;100.00
74065;BME280;62421;51.412;5.432;2023-04-24T01:21:13;99926.56;;;8.54;100.00
74065;BME280;62421;51.412;5.432;2023-04-24T01:23:40;99939.09;;;8.53;100.00
74065;BME280;62421;51.412;5.432;2023-04-24T01:26:05;99928.41;;;8.53;100.00
74065;BME280;62421;51.412;5.432;2023-04-24T01:28:31;99931.06;;;8.53;100.00
74065;BME280;62421;51.412;5.432;2023-04-24T01:30:56;99928.28;;;8.55;100.00
74065;BME280;62421;51.412;5.432;2023-04-24T01:33:22;99933.53;;;8.56;100.00
74065;BME280;62421;51.412;5.432;2023-04-24T01:35:48;99930.84;;;8.56;100.00
74065;BME280;62421;51.412;5.432;2023-04-24T01:38:13;99929.97;;;8.56;100.00
74065;BME280;62421;51.412;5.432;2023-04-24T01:40:39;99938.88;;;8.56;100.00
74065;BME280;62421;51.412;5.432;2023-04-24T01:43:04;99936.94;;;8.58;100.00
74065;BME280;62421;51.412;5.432;2023-04-24T01:45:30;99940.56;;;8.57;100.00
74065;BME280;62421;51.412;5.432;2023-04-24T01:47:56;99930.84;;;8.56;100.00
74065;BME280;62421;51.412;5.432;2023-04-24T01:50:21;99933.66;;;8.55;100.00
74065;BME280;62421;51.412;5.432;2023-04-24T01:52:47;99931.06;;;8.53;100.00
74065;BME280;62421;51.412;5.432;2023-04-24T01:55:12;99930.22;;;8.53;100.00
74065;BME280;62421;51.412;5.432;2023-04-24T01:57:38;99935.69;;;8.51;100.00
74065;BME280;62421;51.412;5.432;2023-04-24T02:00:04;99936.66;;;8.50;100.00
74065;BME280;62421;51.412;5.432;2023-04-24T02:02:30;99936.78;;;8.49;100.00
74065;BME280;62421;51.412;5.432;2023-04-24T02:04:56;99940.31;;;8.49;100.00
74065;BME280;62421;51.412;5.432;2023-04-24T02:07:21;99933.25;;;8.48;100.00
74065;BME280;62421;51.412;5.432;2023-04-24T02:09:47;99944.81;;;8.49;100.00
74065;BME280;62421;51.412;5.432;2023-04-24T02:12:12;99942.13;;;8.49;100.00
74065;BME280;62421;51.412;5.432;2023-04-24T02:14:38;99945.78;;;8.48;100.00
74065;BME280;62421;51.412;5.432;2023-04-24T02:17:03;99942.13;;;8.49;100.00
74065;BME280;62421;51.412;5.432;2023-04-24T02:19:30;99936.66;;;8.50;100.00
74065;BME280;62421;51.412;5.432;2023-04-24T02:21:55;99950.06;;;8.50;100.00
74065;BME280;62421;51.412;5.432;2023-04-24T02:24:21;99942.97;;;8.49;100.00
74065;BME280;62421;51.412;5.432;2023-04-24T02:26:46;99938.59;;;8.48;100.00
74065;BME280;62421;51.412;5.432;2023-04-24T02:29:11;99936.88;;;8.47;100.00
74065;BME280;62421;51.412;5.432;2023-04-24T02:31:37;99937.63;;;8.49;100.00
74065;BME280;62421;51.412;5.432;2023-04-24T02:34:02;99944.91;;;8.47;100.00
74065;BME280;62421;51.412;5.432;2023-04-24T02:36:27;99938.81;;;8.45;100.00
74065;BME280;62421;51.412;5.432;2023-04-24T02:38:53;99939.69;;;8.46;100.00
74065;BME280;62421;51.412;5.432;2023-04-24T02:41:18;99940.53;;;8.46;100.00
74065;BME280;62421;51.412;5.432;2023-04-24T02:43:44;99937.88;;;8.46;100.00
74065;BME280;62421;51.412;5.432;2023-04-24T02:46:10;99932.53;;;8.46;100.00
74065;BME280;62421;51.412;5.432;2023-04-24T02:48:35;99935.19;;;8.46;100.00
74065;BME280;62421;51.412;5.432;2023-04-24T02:51:00;99931.53;;;8.47;100.00
74065;BME280;62421;51.412;5.432;2023-04-24T02:53:26;99934.34;;;8.46;100.00
74065;BME280;62421;51.412;5.432;2023-04-24T02:55:51;99925.44;;;8.45;100.00
74065;BME280;62421;51.412;5.432;2023-04-24T02:58:17;99928.13;;;8.45;100.00
74065;BME280;62421;51.412;5.432;2023-04-24T03:00:42;99931.78;;;8.44;100.00
74065;BME280;62421;51.412;5.432;2023-04-24T03:03:08;99927.28;;;8.45;100.00
74065;BME280;62421;51.412;5.432;2023-04-24T03:05:34;99923.75;;;8.44;100.00
74065;BME280;62421;51.412;5.432;2023-04-24T03:07:59;99923.75;;;8.44;100.00
74065;BME280;62421;51.412;5.432;2023-04-24T03:10:25;99933.63;;;8.44;100.00
74065;BME280;62421;51.412;5.432;2023-04-24T03:12:50;99934.56;;;8.43;100.00
74065;BME280;62421;51.412;5.432;2023-04-24T03:15:16;99928.47;;;8.40;100.00
74065;BME280;62421;51.412;5.432;2023-04-24T03:17:41;99926.84;;;8.38;100.00
74065;BME280;62421;51.412;5.432;2023-04-24T03:20:07;99936.72;;;8.37;100.00
74065;BME280;62421;51.412;5.432;2023-04-24T03:22:33;99933.28;;;8.35;100.00
74065;BME280;62421;51.412;5.432;2023-04-24T03:25:00;99936.06;;;8.34;100.00
74065;BME280;62421;51.412;5.432;2023-04-24T03:27:25;99931.72;;;8.33;100.00
74065;BME280;62421;51.412;5.432;2023-04-24T03:29:50;99928.28;;;8.31;100.00
74065;BME280;62421;51.412;5.432;2023-04-24T03:32:22;99929.25;;;8.30;100.00
74065;BME280;62421;51.412;5.432;2023-04-24T03:34:48;99934.59;;;8.30;100.00
74065;BME280;62421;51.412;5.432;2023-04-24T03:37:14;99937.28;;;8.30;100.00
74065;BME280;62421;51.412;5.432;2023-04-24T03:39:40;99936.31;;;8.31;100.00
74065;BME280;62421;51.412;5.432;2023-04-24T03:42:05;99935.34;;;8.32;100.00
74065;BME280;62421;51.412;5.432;2023-04-24T03:44:30;99938.25;;;8.29;100.00
74065;BME280;62421;51.412;5.432;2023-04-24T03:46:57;99936.31;;;8.31;100.00
74065;BME280;62421;51.412;5.432;2023-04-24T03:49:23;99930.13;;;8.30;100.00
74065;BME280;62421;51.412;5.432;2023-04-24T03:51:48;99933.66;;;8.31;100.00
74065;BME280;62421;51.412;5.432;2023-04-24T03:54:14;99927.47;;;8.30;100.00
74065;BME280;62421;51.412;5.432;2023-04-24T03:56:40;99930.22;;;8.29;100.00
74065;BME280;62421;51.412;5.432;2023-04-24T03:59:05;99928.28;;;8.31;100.00
74065;BME280;62421;51.412;5.432;2023-04-24T04:01:31;99927.47;;;8.30;100.00
74065;BME280;62421;51.412;5.432;2023-04-24T04:03:56;99927.66;;;8.27;100.00
74065;BME280;62421;51.412;5.432;2023-04-24T04:06:21;99926.81;;;8.27;100.00
74065;BME280;62421;51.412;5.432;2023-04-24T04:08:47;99936.78;;;8.25;100.00
74065;BME280;62421;51.412;5.432;2023-04-24T04:11:12;99935.78;;;8.26;100.00
74065;BME280;62421;51.412;5.432;2023-04-24T04:13:38;99932.38;;;8.24;100.00
74065;BME280;62421;51.412;5.432;2023-04-24T04:16:04;99945.00;;;8.21;100.00
74065;BME280;62421;51.412;5.432;2023-04-24T04:18:29;99934.56;;;8.18;100.00
74065;BME280;62421;51.412;5.432;2023-04-24T04:20:55;99940.00;;;8.17;100.00
74065;BME280;62421;51.412;5.432;2023-04-24T04:23:22;99935.75;;;8.14;100.00
74065;BME280;62421;51.412;5.432;2023-04-24T04:25:47;99945.94;;;8.09;100.00
74065;BME280;62421;51.412;5.432;2023-04-24T04:28:12;99935.69;;;8.03;100.00
74065;BME280;62421;51.412;5.432;2023-04-24T04:30:38;99942.34;;;7.97;100.00
74065;BME280;62421;51.412;5.432;2023-04-24T04:33:03;99936.25;;;7.95;100.00
74065;BME280;62421;51.412;5.432;2023-04-24T04:35:28;99942.78;;;7.91;100.00
74065;BME280;62421;51.412;5.432;2023-04-24T04:37:54;99945.59;;;7.90;100.00
74065;BME280;62421;51.412;5.432;2023-04-24T04:40:19;99950.06;;;7.89;100.00
74065;BME280;62421;51.412;5.432;2023-04-24T04:42:45;99947.53;;;7.88;100.00
74065;BME280;62421;51.412;5.432;2023-04-24T04:45:11;99950.41;;;7.85;100.00
74065;BME280;62421;51.412;5.432;2023-04-24T04:47:37;99945.06;;;7.85;100.00
74065;BME280;62421;51.412;5.432;2023-04-24T04:50:03;99940.69;;;7.84;100.00
74065;BME280;62421;51.412;5.432;2023-04-24T04:52:29;99939.94;;;7.82;100.00
74065;BME280;62421;51.412;5.432;2023-04-24T04:54:55;99956.72;;;7.84;100.00
74065;BME280;62421;51.412;5.432;2023-04-24T04:57:20;99951.50;;;7.82;100.00
74065;BME280;62421;51.412;5.432;2023-04-24T04:59:46;99954.06;;;7.84;100.00
74065;BME280;62421;51.412;5.432;2023-04-24T05:02:12;99953.81;;;7.87;100.00
74065;BME280;62421;51.412;5.432;2023-04-24T05:04:37;99956.28;;;7.90;100.00
74065;BME280;62421;51.412;5.432;2023-04-24T05:07:03;99958.09;;;7.89;100.00
74065;BME280;62421;51.412;5.432;2023-04-24T05:09:28;99954.69;;;7.87;100.00
74065;BME280;62421;51.412;5.432;2023-04-24T05:11:55;99950.41;;;7.85;100.00
74065;BME280;62421;51.412;5.432;2023-04-24T05:14:20;99945.28;;;7.82;100.00
74065;BME280;62421;51.412;5.432;2023-04-24T05:16:46;99954.50;;;7.77;100.00
74065;BME280;62421;51.412;5.432;2023-04-24T05:19:11;99973.22;;;7.77;100.00
74065;BME280;62421;51.412;5.432;2023-04-24T05:21:42;99970.78;;;7.74;100.00
74065;BME280;62421;51.412;5.432;2023-04-24T05:24:08;99979.00;;;7.71;100.00
74065;BME280;62421;51.412;5.432;2023-04-24T05:26:33;99987.00;;;7.71;100.00
74065;BME280;62421;51.412;5.432;2023-04-24T05:28:58;99984.91;;;7.64;100.00
74065;BME280;62421;51.412;5.432;2023-04-24T05:31:24;99995.69;;;7.62;100.00
74065;BME280;62421;51.412;5.432;2023-04-24T05:33:50;99991.44;;;7.59;100.00
74065;BME280;62421;51.412;5.432;2023-04-24T05:36:15;99993.97;;;7.61;100.00
74065;BME280;62421;51.412;5.432;2023-04-24T05:38:41;100007.75;;;7.55;100.00
74065;BME280;62421;51.412;5.432;2023-04-24T05:41:06;100003.72;;;7.49;100.00
74065;BME280;62421;51.412;5.432;2023-04-24T05:43:31;100000.19;;;7.49;100.00
74065;BME280;62421;51.412;5.432;2023-04-24T05:45:57;100000.72;;;7.41;100.00
74065;BME280;62421;51.412;5.432;2023-04-24T05:48:23;100013.44;;;7.37;100.00
74065;BME280;62421;51.412;5.432;2023-04-24T05:50:48;100011.66;;;7.38;100.00
74065;BME280;62421;51.412;5.432;2023-04-24T05:53:14;100011.75;;;7.36;100.00
74065;BME280;62421;51.412;5.432;2023-04-24T05:55:39;100005.75;;;7.33;100.00
74065;BME280;62421;51.412;5.432;2023-04-24T05:58:05;100014.84;;;7.30;100.00
74065;BME280;62421;51.412;5.432;2023-04-24T06:00:31;100014.94;;;7.29;100.00
74065;BME280;62421;51.412;5.432;2023-04-24T06:02:57;100016.75;;;7.28;100.00
74065;BME280;62421;51.412;5.432;2023-04-24T06:05:23;100028.19;;;7.30;100.00
74065;BME280;62421;51.412;5.432;2023-04-24T06:07:48;100035.03;;;7.22;100.00
74065;BME280;62421;51.412;5.432;2023-04-24T06:10:13;100037.91;;;7.18;100.00
74065;BME280;62421;51.412;5.432;2023-04-24T06:12:39;100044.84;;;7.21;100.00
74065;BME280;62421;51.412;5.432;2023-04-24T06:15:05;100043.53;;;7.14;100.00
74065;BME280;62421;51.412;5.432;2023-04-24T06:17:30;100055.94;;;7.15;100.00
74065;BME280;62421;51.412;5.432;2023-04-24T06:19:56;100055.19;;;7.13;100.00
74065;BME280;62421;51.412;5.432;2023-04-24T06:22:21;100070.06;;;7.17;100.00
74065;BME280;62421;51.412;5.432;2023-04-24T06:24:46;100071.00;;;7.16;100.00
74065;BME280;62421;51.412;5.432;2023-04-24T06:27:13;100074.63;;;7.15;100.00
74065;BME280;62421;51.412;5.432;2023-04-24T06:29:38;100090.66;;;7.15;100.00
74065;BME280;62421;51.412;5.432;2023-04-24T06:32:04;100087.44;;;7.23;100.00
74065;BME280;62421;51.412;5.432;2023-04-24T06:34:30;100079.75;;;7.18;100.00
74065;BME280;62421;51.412;5.432;2023-04-24T06:36:56;100100.28;;;7.17;100.00
74065;BME280;62421;51.412;5.432;2023-04-24T06:39:21;100111.78;;;7.18;100.00
74065;BME280;62421;51.412;5.432;2023-04-24T06:41:47;100114.91;;;7.25;100.00
74065;BME280;62421;51.412;5.432;2023-04-24T06:44:12;100121.44;;;7.21;100.00
74065;BME280;62421;51.412;5.432;2023-04-24T06:46:40;100120.38;;;7.23;100.00
74065;BME280;62421;51.412;5.432;2023-04-24T06:49:05;100125.91;;;7.20;100.00
74065;BME280;62421;51.412;5.432;2023-04-24T06:51:31;100143.66;;;7.21;100.00
74065;BME280;62421;51.412;5.432;2023-04-24T06:53:58;100149.75;;;7.23;100.00
74065;BME280;62421;51.412;5.432;2023-04-24T06:56:23;100147.06;;;7.23;100.00
74065;BME280;62421;51.412;5.432;2023-04-24T06:58:49;100161.38;;;7.22;100.00
74065;BME280;62421;51.412;5.432;2023-04-24T07:01:14;100170.22;;;7.23;100.00
74065;BME280;62421;51.412;5.432;2023-04-24T07:03:40;100181.47;;;7.28;100.00
74065;BME280;62421;51.412;5.432;2023-04-24T07:06:06;100182.63;;;7.24;100.00
74065;BME280;62421;51.412;5.432;2023-04-24T07:08:31;100188.19;;;7.21;100.00
74065;BME280;62421;51.412;5.432;2023-04-24T07:10:58;100196.09;;;7.22;100.00
74065;BME280;62421;51.412;5.432;2023-04-24T07:13:24;100195.03;;;7.25;100.00
74065;BME280;62421;51.412;5.432;2023-04-24T07:15:49;100204.94;;;7.23;100.00
74065;BME280;62421;51.412;5.432;2023-04-24T07:18:16;100212.78;;;7.26;100.00
74065;BME280;62421;51.412;5.432;2023-04-24T07:20:42;100220.78;;;7.26;100.00
74065;BME280;62421;51.412;5.432;2023-04-24T07:23:07;100231.38;;;7.27;100.00
74065;BME280;62421;51.412;5.432;2023-04-24T07:25:33;100240.69;;;7.34;100.00
74065;BME280;62421;51.412;5.432;2023-04-24T07:27:59;100239.72;;;7.35;100.00
74065;BME280;62421;51.412;5.432;2023-04-24T07:30:24;100240.69;;;7.34;100.00
74065;BME280;62421;51.412;5.432;2023-04-24T07:32:50;100250.59;;;7.32;100.00
74065;BME280;62421;51.412;5.432;2023-04-24T07:35:15;100270.16;;;7.33;100.00
74065;BME280;62421;51.412;5.432;2023-04-24T07:37:41;100270.53;;;7.27;100.00
74065;BME280;62421;51.412;5.432;2023-04-24T07:40:14;100274.50;;;7.21;100.00
74065;BME280;62421;51.412;5.432;2023-04-24T07:42:39;100288.91;;;7.18;100.00
74065;BME280;62421;51.412;5.432;2023-04-24T07:45:05;100301.59;;;7.15;100.00
74065;BME280;62421;51.412;5.432;2023-04-24T07:47:32;100313.13;;;7.15;100.00
74065;BME280;62421;51.412;5.432;2023-04-24T07:49:57;100317.63;;;7.15;100.00
74065;BME280;62421;51.412;5.432;2023-04-24T07:52:24;100336.69;;;7.09;100.00
74065;BME280;62421;51.412;5.432;2023-04-24T07:54:49;100328.88;;;7.06;100.00
74065;BME280;62421;51.412;5.432;2023-04-24T07:57:15;100350.13;;;7.07;100.00
74065;BME280;62421;51.412;5.432;2023-04-24T07:59:41;100345.38;;;7.12;100.00
74065;BME280;62421;51.412;5.432;2023-04-24T08:02:06;100348.13;;;7.11;100.00
74065;BME280;62421;51.412;5.432;2023-04-24T08:04:32;100352.31;;;7.15;100.00
74065;BME280;62421;51.412;5.432;2023-04-24T08:06:57;100358.13;;;7.22;100.00
74065;BME280;62421;51.412;5.432;2023-04-24T08:09:23;100365.75;;;7.28;100.00
74065;BME280;62421;51.412;5.432;2023-04-24T08:11:48;100365.53;;;7.31;100.00
74065;BME280;62421;51.412;5.432;2023-04-24T08:14:14;100366.59;;;7.28;100.00
74065;BME280;62421;51.412;5.432;2023-04-24T08:16:40;100382.63;;;7.28;100.00
74065;BME280;62421;51.412;5.432;2023-04-24T08:19:06;100378.81;;;7.32;100.00
74065;BME280;62421;51.412;5.432;2023-04-24T08:21:31;100398.28;;;7.34;100.00
74065;BME280;62421;51.412;5.432;2023-04-24T08:23:57;100386.81;;;7.32;100.00
74065;BME280;62421;51.412;5.432;2023-04-24T08:26:22;100415.16;;;7.35;100.00
74065;BME280;62421;51.412;5.432;2023-04-24T08:28:48;100407.13;;;7.35;100.00
74065;BME280;62421;51.412;5.432;2023-04-24T08:31:13;100417.53;;;7.39;100.00
74065;BME280;62421;51.412;5.432;2023-04-24T08:33:39;100409.31;;;7.43;100.00
74065;BME280;62421;51.412;5.432;2023-04-24T08:36:06;100415.13;;;7.49;100.00
74065;BME280;62421;51.412;5.432;2023-04-24T08:38:32;100417.41;;;7.55;100.00
74065;BME280;62421;51.412;5.432;2023-04-24T08:40:59;100431.03;;;7.65;100.00
74065;BME280;62421;51.412;5.432;2023-04-24T08:43:25;100427.56;;;7.77;100.00
74065;BME280;62421;51.412;5.432;2023-04-24T08:45:52;100439.69;;;7.83;100.00
74065;BME280;62421;51.412;5.432;2023-04-24T08:48:17;100443.56;;;7.92;100.00
74065;BME280;62421;51.412;5.432;2023-04-24T08:50:43;100441.03;;;8.03;100.00
74065;BME280;62421;51.412;5.432;2023-04-24T08:53:10;100442.47;;;8.21;100.00
74065;BME280;62421;51.412;5.432;2023-04-24T08:55:35;100439.75;;;8.36;100.00
74065;BME280;62421;51.412;5.432;2023-04-24T08:58:02;100459.31;;;8.51;100.00
74065;BME280;62421;51.412;5.432;2023-04-24T09:00:28;100470.44;;;8.57;100.00
74065;BME280;62421;51.412;5.432;2023-04-24T09:02:54;100457.31;;;8.40;100.00
74065;BME280;62421;51.412;5.432;2023-04-24T09:05:21;100460.00;;;8.13;100.00
74065;BME280;62421;51.412;5.432;2023-04-24T09:07:53;100478.50;;;7.89;100.00
74065;BME280;62421;51.412;5.432;2023-04-24T09:10:20;100485.31;;;7.66;100.00
74065;BME280;62421;51.412;5.432;2023-04-24T09:12:46;100480.88;;;7.52;100.00
74065;BME280;62421;51.412;5.432;2023-04-24T09:15:12;100489.94;;;7.49;100.00
74065;BME280;62421;51.412;5.432;2023-04-24T09:17:37;100485.91;;;7.56;100.00
74065;BME280;62421;51.412;5.432;2023-04-24T09:20:04;100505.66;;;7.68;100.00
74065;BME280;62421;51.412;5.432;2023-04-24T09:22:32;100497.97;;;7.91;100.00
74065;BME280;62421;51.412;5.432;2023-04-24T09:25:06;100510.63;;;8.16;100.00
74065;BME280;62421;51.412;5.432;2023-04-24T09:27:33;100510.47;;;8.32;100.00
74065;BME280;62421;51.412;5.432;2023-04-24T09:30:00;100523.66;;;8.35;100.00
74065;BME280;62421;51.412;5.432;2023-04-24T09:32:25;100515.91;;;8.45;100.00
74065;BME280;62421;51.412;5.432;2023-04-24T09:35:11;100521.69;;;8.51;100.00
74065;BME280;62421;51.412;5.432;2023-04-24T09:37:46;100519.16;;;8.35;100.00
74065;BME280;62421;51.412;5.432;2023-04-24T09:40:21;100529.03;;;8.20;100.00
74065;BME280;62421;51.412;5.432;2023-04-24T09:42:54;100530.91;;;8.06;100.00
74065;BME280;62421;51.412;5.432;2023-04-24T09:45:20;100540.16;;;8.00;100.00
74065;BME280;62421;51.412;5.432;2023-04-24T09:47:46;100537.78;;;7.95;100.00
74065;BME280;62421;51.412;5.432;2023-04-24T09:50:16;100542.88;;;7.86;100.00
74065;BME280;62421;51.412;5.432;2023-04-24T09:52:47;100557.19;;;7.99;100.00
74065;BME280;62421;51.412;5.432;2023-04-24T09:55:20;100552.34;;;8.18;100.00
74065;BME280;62421;51.412;5.432;2023-04-24T09:57:56;100566.47;;;8.35;100.00
74065;BME280;62421;51.412;5.432;2023-04-24T10:00:29;100564.06;;;8.45;100.00
74065;BME280;62421;51.412;5.432;2023-04-24T10:03:04;100571.28;;;8.57;100.00
74065;BME280;62421;51.412;5.432;2023-04-24T10:05:35;100569.00;;;8.78;100.00
74065;BME280;62421;51.412;5.432;2023-04-24T10:08:09;100573.97;;;8.84;100.00
74065;BME280;62421;51.412;5.432;2023-04-24T10:10:44;100570.84;;;8.90;100.00
74065;BME280;62421;51.412;5.432;2023-04-24T10:13:14;100572.84;;;8.74;100.00
74065;BME280;62421;51.412;5.432;2023-04-24T10:15:41;100588.78;;;8.63;100.00
74065;BME280;62421;51.412;5.432;2023-04-24T10:18:07;100583.66;;;8.45;100.00
74065;BME280;62421;51.412;5.432;2023-04-24T10:20:36;100589.13;;;8.44;100.00
74065;BME280;62421;51.412;5.432;2023-04-24T10:23:03;100588.59;;;8.51;100.00
74065;BME280;62421;51.412;5.432;2023-04-24T10:25:29;100587.72;;;8.65;100.00
74065;BME280;62421;51.412;5.432;2023-04-24T10:27:56;100592.13;;;8.79;100.00
74065;BME280;62421;51.412;5.432;2023-04-24T10:30:28;100592.22;;;8.77;100.00
74065;BME280;62421;51.412;5.432;2023-04-24T10:32:54;100593.56;;;8.85;100.00
74065;BME280;62421;51.412;5.432;2023-04-24T10:35:19;100599.66;;;8.87;100.00
74065;BME280;62421;51.412;5.432;2023-04-24T10:38:09;100606.28;;;8.81;100.00
74065;BME280;62421;51.412;5.432;2023-04-24T10:40:36;100612.31;;;8.85;100.00
74065;BME280;62421;51.412;5.432;2023-04-24T10:43:03;100601.78;;;8.81;100.00
74065;BME280;62421;51.412;5.432;2023-04-24T10:45:31;100606.19;;;8.82;98.29
74065;BME280;62421;51.412;5.432;2023-04-24T10:48:02;100617.84;;;8.81;100.00
74065;BME280;62421;51.412;5.432;2023-04-24T10:50:29;100621.31;;;8.96;100.00
74065;BME280;62421;51.412;5.432;2023-04-24T10:53:06;100626.56;;;9.38;100.00
74065;BME280;62421;51.412;5.432;2023-04-24T10:55:52;100622.84;;;9.79;96.17
74065;BME280;62421;51.412;5.432;2023-04-24T10:58:22;100629.38;;;9.88;89.30
74065;BME280;62421;51.412;5.432;2023-04-24T11:00:59;100623.03;;;9.89;95.96
74065;BME280;62421;51.412;5.432;2023-04-24T11:03:32;100630.00;;;9.91;93.49
74065;BME280;62421;51.412;5.432;2023-04-24T11:06:03;100632.16;;;9.86;90.26
74065;BME280;62421;51.412;5.432;2023-04-24T11:08:31;100631.50;;;9.82;90.83
74065;BME280;62421;51.412;5.432;2023-04-24T11:10:59;100637.19;;;9.91;90.37
74065;BME280;62421;51.412;5.432;2023-04-24T11:13:27;100647.25;;;10.00;89.12
74065;BME280;62421;51.412;5.432;2023-04-24T11:16:15;100645.44;;;10.13;92.51
74065;BME280;62421;51.412;5.432;2023-04-24T11:18:45;100646.16;;;10.28;89.44
74065;BME280;62421;51.412;5.432;2023-04-24T11:21:12;100649.59;;;10.43;85.88
74065;BME280;62421;51.412;5.432;2023-04-24T11:23:38;100653.44;;;10.52;85.57
74065;BME280;62421;51.412;5.432;2023-04-24T11:26:22;100659.22;;;10.58;87.74
74065;BME280;62421;51.412;5.432;2023-04-24T11:28:50;100659.38;;;10.44;84.93
74065;BME280;62421;51.412;5.432;2023-04-24T11:31:35;100655.09;;;10.41;87.61
74065;BME280;62421;51.412;5.432;2023-04-24T11:34:11;100669.03;;;10.47;84.40
74065;BME280;62421;51.412;5.432;2023-04-24T11:36:37;100667.16;;;10.60;85.63
74065;BME280;62421;51.412;5.432;2023-04-24T11:39:03;100668.41;;;10.80;84.38
74065;BME280;62421;51.412;5.432;2023-04-24T11:41:28;100654.44;;;10.99;81.69
74065;BME280;62421;51.412;5.432;2023-04-24T11:43:55;100681.81;;;11.04;82.32
74065;BME280;62421;51.412;5.432;2023-04-24T11:46:21;100691.38;;;11.08;77.45
74065;BME280;62421;51.412;5.432;2023-04-24T11:48:46;100683.63;;;10.79;77.66
74065;BME280;62421;51.412;5.432;2023-04-24T11:51:13;100688.72;;;10.71;82.33
74065;BME280;62421;51.412;5.432;2023-04-24T11:53:38;100684.72;;;10.77;81.78
74065;BME280;62421;51.412;5.432;2023-04-24T11:56:04;100695.06;;;10.94;82.47
74065;BME280;62421;51.412;5.432;2023-04-24T11:58:35;100683.03;;;11.00;81.97
74065;BME280;62421;51.412;5.432;2023-04-24T12:01:01;100700.84;;;11.01;79.44
74065;BME280;62421;51.412;5.432;2023-04-24T12:03:26;100696.41;;;11.13;78.97
74065;BME280;62421;51.412;5.432;2023-04-24T12:05:52;100695.22;;;11.17;78.83
74065;BME280;62421;51.412;5.432;2023-04-24T12:08:27;100690.84;;;11.27;81.23
74065;BME280;62421;51.412;5.432;2023-04-24T12:10:53;100699.56;;;11.42;81.34
74065;BME280;62421;51.412;5.432;2023-04-24T12:13:19;100704.44;;;11.72;81.03
74065;BME280;62421;51.412;5.432;2023-04-24T12:15:44;100701.59;;;11.98;77.50
74065;BME280;62421;51.412;5.432;2023-04-24T12:18:11;100700.38;;;12.02;73.12
74065;BME280;62421;51.412;5.432;2023-04-24T12:20:37;100702.84;;;12.05;74.08
74065;BME280;62421;51.412;5.432;2023-04-24T12:23:03;100699.25;;;12.04;70.81
74065;BME280;62421;51.412;5.432;2023-04-24T12:25:30;100715.19;;;12.07;71.74
74065;BME280;62421;51.412;5.432;2023-04-24T12:30:32;100739.53;;;12.17;73.82
74065;BME280;62421;51.412;5.432;2023-04-24T12:32:59;100723.38;;;12.06;71.47
74065;BME280;62421;51.412;5.432;2023-04-24T12:35:28;100731.78;;;11.90;72.69
74065;BME280;62421;51.412;5.432;2023-04-24T12:37:54;100735.66;;;11.86;73.43
74065;BME280;62421;51.412;5.432;2023-04-24T12:40:21;100725.41;;;11.91;73.21
74065;BME280;62421;51.412;5.432;2023-04-24T12:42:50;100743.44;;;12.02;73.98
74065;BME280;62421;51.412;5.432;2023-04-24T12:45:17;100727.81;;;12.18;71.66
74065;BME280;62421;51.412;5.432;2023-04-24T12:47:46;100740.16;;;12.09;70.82
74065;BME280;62421;51.412;5.432;2023-04-24T12:50:15;100756.19;;;12.11;70.66
74065;BME280;62421;51.412;5.432;2023-04-24T12:52:41;100755.28;;;11.99;69.11
74065;BME280;62421;51.412;5.432;2023-04-24T12:55:07;100755.34;;;11.86;69.98